This is the latest recevied weather packets stored in our database for station/object KQ4UPF. If no packets are shown the sender has not sent any weather packets the latest 10 day(s).
| Time | Temp. | Humidity | Pressure | Rain* | Wind** | Luminosity | Snow |
|---|---|---|---|---|---|---|---|
| 1777655983 | 18.89° C | 59% | 1016.4 hPa | 0 mm | - | 394 W/m² | - |
| 1777655678 | 17.78° C | 59% | 1016.3 hPa | 0 mm | - | 364 W/m² | - |
| 1777655375 | 17.22° C | 63% | 1016.4 hPa | 0 mm | - | 332 W/m² | - |
| 1777655072 | 17.22° C | 63% | 1016.5 hPa | 0 mm | - | 312 W/m² | - |
| 1777654770 | 17.22° C | 67% | 1016.5 hPa | 0 mm | - | 353 W/m² | - |
| 1777654468 | 17.78° C | 59% | 1016.5 hPa | 0 mm | - | 388 W/m² | - |
| 1777654165 | 17.78° C | 62% | 1016.3 hPa | 0 mm | - | 412 W/m² | - |
| 1777653863 | 17.78° C | 61% | 1016.4 hPa | 0 mm | - | 573 W/m² | - |
| 1777653559 | 17.78° C | 62% | 1016.4 hPa | 0 mm | - | 543 W/m² | - |
| 1777653255 | 17.78° C | 62% | 1016.3 hPa | 0 mm | - | 495 W/m² | - |
| 1777652952 | 17.78° C | 62% | 1016.2 hPa | 0 mm | - | 466 W/m² | - |
| 1777652649 | 17.78° C | 59% | 1016.2 hPa | 0 mm | - | 461 W/m² | - |
| 1777652346 | 16.67° C | 62% | 1016.4 hPa | 0 mm | - | 572 W/m² | - |
| 1777652043 | 17.22° C | 63% | 1016.2 hPa | 0 mm | - | 494 W/m² | - |
| 1777651739 | 16.67° C | 67% | 1016.4 hPa | 0 mm | - | 470 W/m² | - |
| 1777651436 | 16.67° C | 65% | 1016.4 hPa | 0 mm | - | 434 W/m² | - |
| 1777651134 | 16.11° C | 70% | 1016.4 hPa | 0 mm | - | 467 W/m² | - |
| 1777650830 | 16.11° C | 65% | 1016.8 hPa | 0 mm | - | 392 W/m² | - |
| 1777650527 | 15.56° C | 66% | 1016.6 hPa | 0 mm | - | 368 W/m² | - |
| 1777650225 | 15.56° C | 68% | 1016.7 hPa | 0 mm | - | 377 W/m² | - |
| 1777649921 | 15° C | 74% | 1016.9 hPa | 0 mm | - | 346 W/m² | - |
| 1777649619 | 15° C | 74% | 1017.1 hPa | 0 mm | - | 320 W/m² | - |
| 1777649314 | 15° C | 76% | 1017.1 hPa | 0 mm | - | 305 W/m² | - |
| 1777649012 | 15° C | 75% | 1016.9 hPa | 0 mm | - | 271 W/m² | - |
| 1777648710 | 14.44° C | 76% | 1016.8 hPa | 0 mm | - | 254 W/m² | - |
* Rain latest hour (hover to see other rain measurements)
** Current wind speed in m/s (hover to see current wind gust speed)